Airfield :
LOGIN :

Register | Disclaimer

   EN    FR    IT 

 










Legend :    VFR   Marginal VFR   IFR   Intensive IFR   Very Intensive IFR
Visi :
Ceiling :
>= 8 km
>= 3000ft
5 to 8 km
1000 to 3000 ft
1500m to 5 km
500 to 1000 ft
800 to 1500m
200 to 500 ft
< 800m
< 200 ft
Symbols :   Thunderstorms  Fog  Heavy snow  Heavy precipitations  Wind > 20 kt
SIGMETs :     Misc.  Thunderstorms  Icing  Turbulence  Mountain Waves  Volcanic Ashes







- Airport Elevation : 3 ft
- IATA code : DHR


EHKD - Den Helder De Kooy

CURRENT METAR :
  • 181755Z AUTO 18007KT 9999 OVC130 01/M01 Q1018 BLU 20006KT 9999 FEW035

EXPIRED METARs :
  • 181725Z AUTO 19007KT 9999 OVC130 00/M01 Q1018 BLU 20006KT 9999 FEW035
  • 181655Z AUTO 19007KT 9999 OVC140 01/M01 Q1018 BLU 20006KT 9999 FEW035
  • 181625Z AUTO 20007KT 9999 OVC140 01/M01 Q1018 BLU 20006KT 9999 FEW035
  • 181555Z AUTO 20007KT 9999 OVC130 02/M00 Q1018 BLU 20006KT 9999 FEW035
  • 181525Z AUTO 21009KT 9999 OVC130 04/01 Q1018 BLU 20006KT 9999 FEW035

TAF TAF EHKD
Valid from the 18 at 18:00 until the 19 at 06:00 UTC


181703Z 1818/1906 19008KT CAVOK
BECMG 1820/1823 16014KT
No reported NOTAMs for that airfield.



MET'MAP, your aeronautical weather chart ! - Copyright ORBIFLY December 2007 - Disclaimer

ORBIFLY MET'MAP TEAM :

Programming & Development : Alexandra Zaïnal
Concept & Development : Baudouin d'Aumeries
Co-Development & Prog : Marc-Olivier Méhu
Technical & hardware support : Manuel Goepfert

Contact : metmap@orbifly.com




SOURCES & CREDITS :

   NOAA